Time;durP1;ratioP1;P1;durP2;ratioP2;P2;SDS_P1;SDS_P2;PMS_P1;PMS_P2;Temp;Humidity;BMP_temperature;BMP_pressure;BME280_temperature;BME280_humidity;BME280_pressure;Samples;Min_cycle;Max_cycle;Signal;HPM_P1;HPM_P2
2021/12/14 00:01:34;;;;;;;14.63;8.70;;;;;;;3.92;100.00;97609.66;10610838;28;20158;-64
2021/12/14 00:06:35;;;;;;;14.20;7.53;;;;;;;4.04;100.00;97609.84;10610029;28;20236;-62
2021/12/14 00:16:43;;;;;;;15.40;9.07;;;;;;;4.14;100.00;97584.19;10610090;28;20238;-63
2021/12/14 00:21:49;;;;;;;11.10;6.53;;;;;;;4.15;100.00;97584.09;10609961;28;20219;-64
2021/12/14 00:27:02;;;;;;;14.40;7.03;;;;;;;4.10;100.00;97594.75;10609765;28;20177;-62
2021/12/14 00:32:18;;;;;;;14.47;7.40;;;;;;;4.11;100.00;97596.41;10609887;28;20476;-64
2021/12/14 00:37:29;;;;;;;16.90;6.33;;;;;;;4.10;100.00;97594.75;10608686;28;20444;-64
2021/12/14 00:42:29;;;;;;;12.00;6.20;;;;;;;4.00;100.00;97585.88;10591886;28;20170;-62
2021/12/14 00:47:29;;;;;;;8.30;5.53;;;;;;;3.80;100.00;97594.00;10591375;28;20170;-63
2021/12/14 00:52:30;;;;;;;11.10;5.70;;;;;;;3.75;100.00;97596.88;10608880;28;20431;-61
2021/12/14 00:57:31;;;;;;;9.93;5.90;;;;;;;3.77;100.00;97596.78;10609271;28;20205;-62
2021/12/14 01:02:31;;;;;;;10.77;6.10;;;;;;;3.69;100.00;97599.81;10590754;28;20185;-63
2021/12/14 01:07:32;;;;;;;12.43;6.27;;;;;;;3.59;100.00;97591.78;10608992;28;20328;-63
2021/12/14 01:12:42;;;;;;;12.83;5.90;;;;;;;3.55;100.00;97596.31;10608196;28;20202;-63
2021/12/14 01:17:54;;;;;;;12.20;6.13;;;;;;;3.48;100.00;97600.19;10609359;28;20370;-64
2021/12/14 01:23:00;;;;;;;13.47;7.33;;;;;;;3.61;100.00;97604.63;10599453;28;20158;-64
2021/12/14 01:28:03;;;;;;;13.97;6.50;;;;;;;3.54;100.00;97611.94;10599479;28;20190;-63
2021/12/14 01:33:07;;;;;;;10.63;6.43;;;;;;;3.50;100.00;97616.47;10598591;28;20190;-62
2021/12/14 01:38:21;;;;;;;15.83;7.30;;;;;;;3.59;100.00;97609.09;10598529;28;20182;-64
2021/12/14 01:43:44;;;;;;;11.47;7.17;;;;;;;3.60;100.00;97602.97;10616187;28;20385;-64
2021/12/14 01:48:50;;;;;;;9.90;6.20;;;;;;;3.55;100.00;97605.81;10598273;28;20158;-65
2021/12/14 01:54:03;;;;;;;11.03;6.30;;;;;;;3.61;100.00;97597.69;10598017;28;20189;-64
2021/12/14 01:59:10;;;;;;;11.63;5.93;;;;;;;3.65;100.00;97593.19;10597383;28;20173;-62
2021/12/14 02:04:18;;;;;;;10.20;5.80;;;;;;;3.36;100.00;97606.09;10595919;28;20165;-64
2021/12/14 02:09:18;;;;;;;9.83;6.33;;;;;;;3.41;100.00;97598.88;10615013;28;20190;-63
2021/12/14 02:14:20;;;;;;;11.57;6.70;;;;;;;3.51;100.00;97600.00;10615296;28;20227;-64
2021/12/14 02:19:21;;;;;;;11.20;5.90;;;;;;;3.33;100.00;97590.72;10595748;28;20213;-64
2021/12/14 02:24:23;;;;;;;14.77;6.30;;;;;;;3.43;100.00;97593.59;10596213;28;20180;-63
2021/12/14 02:29:34;;;;;;;11.13;6.10;;;;;;;3.41;100.00;97583.34;10595197;28;20158;-65
2021/12/14 02:34:51;;;;;;;9.80;6.13;;;;;;;3.38;100.00;97586.09;10595921;28;20198;-64
2021/12/14 02:40:03;;;;;;;10.77;5.53;;;;;;;3.29;100.00;97574.53;10595360;28;20162;-64
2021/12/14 02:45:06;;;;;;;8.53;5.50;;;;;;;3.37;100.00;97571.50;10595209;28;20177;-65
2021/12/14 02:50:09;;;;;;;8.67;4.97;;;;;;;3.34;100.00;97564.75;10594727;28;20197;-64
2021/12/14 02:55:13;;;;;;;10.07;6.00;;;;;;;3.35;100.00;97560.38;10595758;28;20221;-64
2021/12/14 03:00:18;;;;;;;11.17;5.70;;;;;;;3.39;100.00;97552.34;10613189;28;20197;-63
2021/12/14 03:05:24;;;;;;;13.43;6.77;;;;;;;3.41;100.00;97541.06;10595364;28;20158;-64
2021/12/14 03:15:47;;;;;;;11.53;6.30;;;;;;;3.47;100.00;97549.28;10612382;28;20234;-64
2021/12/14 03:21:00;;;;;;;11.47;6.37;;;;;;;3.41;100.00;97552.25;10612474;28;20238;-64
2021/12/14 03:26:03;;;;;;;10.60;6.00;;;;;;;3.54;100.00;97557.56;10612508;28;20162;-64
2021/12/14 03:31:09;;;;;;;11.97;6.30;;;;;;;3.58;100.00;97556.41;10594038;28;20205;-64
2021/12/14 03:36:17;;;;;;;9.60;5.93;;;;;;;3.51;100.00;97561.16;10593805;28;20177;-64
2021/12/14 03:41:28;;;;;;;10.63;6.47;;;;;;;3.60;100.00;97564.97;10593400;28;20194;-65
2021/12/14 03:46:33;;;;;;;12.00;6.07;;;;;;;3.54;100.00;97553.19;10594210;28;20162;-66
2021/12/14 03:51:33;;;;;;;9.30;5.87;;;;;;;3.59;100.00;97549.50;10593265;28;20418;-66
2021/12/14 03:56:34;;;;;;;8.60;5.27;;;;;;;3.48;100.00;97542.38;10593117;28;20170;-66
2021/12/14 04:01:39;;;;;;;9.67;6.13;;;;;;;3.45;100.00;97530.44;10575535;28;20252;-65
2021/12/14 04:06:42;;;;;;;8.90;5.20;;;;;;;3.56;100.00;97540.97;10566826;28;20195;-66
2021/12/14 04:11:44;;;;;;;7.10;4.67;;;;;;;3.61;100.00;97524.31;10526911;28;20194;-65
2021/12/14 04:16:48;;;;;;;6.30;4.53;;;;;;;3.73;100.00;97516.63;10544314;28;20218;-64
2021/12/14 04:21:49;;;;;;;4.87;3.97;;;;;;;3.74;100.00;97513.13;10544270;28;20258;-65
2021/12/14 04:26:52;;;;;;;5.57;4.73;;;;;;;3.78;100.00;97505.16;10543676;28;20395;-65
2021/12/14 04:31:54;;;;;;;4.73;4.27;;;;;;;3.78;100.00;97507.75;10543695;28;20326;-65
2021/12/14 04:36:56;;;;;;;5.60;4.10;;;;;;;3.82;100.00;97504.88;10543443;28;20169;-65
2021/12/14 04:52:49;;;;;;;6.53;4.10;;;;;;;3.76;100.00;97494.88;10543272;28;20194;-65
2021/12/14 04:57:49;;;;;;;5.07;3.27;;;;;;;3.65;100.00;97494.72;10542920;28;20246;-65
2021/12/14 05:02:52;;;;;;;4.33;3.60;;;;;;;3.67;100.00;97498.03;10546371;28;20186;-65
2021/12/14 05:13:11;;;;;;;7.17;2.80;;;;;;;3.36;100.00;97498.13;10548293;28;20220;-64
2021/12/14 05:18:13;;;;;;;19.60;12.03;;;;;;;3.21;100.00;97496.47;10548928;28;20278;-65
2021/12/14 05:23:23;;;;;;;3.10;2.77;;;;;;;3.21;100.00;97486.94;10548570;28;20165;-65
2021/12/14 05:28:25;;;;;;;4.67;3.53;;;;;;;3.10;100.00;97481.56;10566475;28;20177;-64
2021/12/14 05:33:34;;;;;;;11.40;7.53;;;;;;;2.97;100.00;97470.25;10547857;28;20638;-64
2021/12/14 05:44:23;;;;;;;2.10;1.90;;;;;;;3.05;100.00;97462.91;10565696;28;20171;-64
2021/12/14 05:49:27;;;;;;;2.03;1.87;;;;;;;3.13;100.00;97450.31;10548309;28;20170;-63
2021/12/14 05:54:30;;;;;;;2.23;2.03;;;;;;;3.23;100.00;97450.59;10565330;28;20244;-63
2021/12/14 05:59:33;;;;;;;2.70;2.50;;;;;;;3.14;100.00;97435.63;10548031;28;20385;-64
2021/12/14 06:04:44;;;;;;;4.57;3.63;;;;;;;2.91;100.00;97434.41;10550411;28;20163;-64
2021/12/14 06:09:48;;;;;;;3.80;3.03;;;;;;;2.91;100.00;97443.00;10555334;28;20163;-63
2021/12/14 06:15:05;;;;;;;2.30;2.10;;;;;;;2.98;100.00;97448.66;10555236;28;20238;-64
2021/12/14 06:20:14;;;;;;;2.27;2.03;;;;;;;2.96;100.00;97442.75;10555072;28;20163;-63
2021/12/14 06:25:17;;;;;;;2.47;2.07;;;;;;;3.02;100.00;97455.31;10554432;28;20166;-65
2021/12/14 06:30:24;;;;;;;1.70;1.60;;;;;;;2.85;100.00;97471.84;10562412;28;20416;-64
2021/12/14 06:35:35;;;;;;;2.23;2.03;;;;;;;2.93;100.00;97479.16;10593895;28;20377;-64
2021/12/14 06:40:42;;;;;;;3.40;2.20;;;;;;;2.80;100.00;97479.88;10591330;28;20162;-64
2021/12/14 06:46:11;;;;;;;1.50;1.40;;;;;;;2.89;100.00;97488.00;10592045;28;20366;-64
2021/12/14 06:51:24;;;;;;;1.70;1.40;;;;;;;2.88;100.00;97496.69;10583169;28;20327;-64
2021/12/14 06:56:37;;;;;;;15.10;11.13;;;;;;;2.98;100.00;97501.22;10593582;28;20227;-64
2021/12/14 07:01:51;;;;;;;2.87;2.60;;;;;;;3.02;100.00;97504.50;10609650;28;20296;-64
2021/12/14 07:06:55;;;;;;;1.57;1.47;;;;;;;3.10;100.00;97509.22;10592588;28;20237;-64
2021/12/14 07:12:04;;;;;;;2.83;1.40;;;;;;;2.96;100.00;97502.25;10592644;28;20314;-64
2021/12/14 07:17:16;;;;;;;4.40;1.80;;;;;;;2.94;100.00;97499.78;10608945;28;20235;-64
2021/12/14 07:22:22;;;;;;;2.87;2.50;;;;;;;2.99;100.00;97509.84;10609781;28;20197;-64
2021/12/14 07:27:31;;;;;;;3.90;2.73;;;;;;;2.98;100.00;97492.66;10610223;28;20288;-64
2021/12/14 07:32:54;;;;;;;2.73;2.33;;;;;;;2.94;100.00;97496.31;10608500;28;20268;-64
2021/12/14 07:38:01;;;;;;;2.50;2.27;;;;;;;3.07;100.00;97499.06;10607721;27;20205;-64
2021/12/14 07:43:30;;;;;;;2.17;1.97;;;;;;;3.20;100.00;97492.19;10608760;28;20443;-64
2021/12/14 07:49:18;;;;;;;2.13;1.90;;;;;;;3.22;100.00;97490.38;10606497;28;20209;-64
2021/12/14 07:54:23;;;;;;;2.37;2.10;;;;;;;3.29;100.00;97490.81;10601692;28;20380;-64
2021/12/14 07:59:40;;;;;;;7.43;4.77;;;;;;;3.31;100.00;97489.00;10608642;28;20173;-64
2021/12/14 08:04:44;;;;;;;7.20;4.30;;;;;;;3.28;100.00;97483.97;10607493;28;20177;-64
2021/12/14 08:09:49;;;;;;;3.87;3.00;;;;;;;3.21;100.00;97473.97;10607790;28;20181;-64
2021/12/14 08:15:07;;;;;;;6.53;4.27;;;;;;;3.24;100.00;97475.56;10607902;28;20238;-65
2021/12/14 08:20:12;;;;;;;3.93;3.03;;;;;;;3.30;100.00;97462.25;10607451;28;20253;-65
2021/12/14 08:25:14;;;;;;;4.53;2.97;;;;;;;3.25;100.00;97472.06;10607853;28;20170;-64
2021/12/14 08:30:16;;;;;;;5.80;3.30;;;;;;;3.24;100.00;97479.91;10607233;28;20174;-64
2021/12/14 08:35:16;;;;;;;5.37;4.17;;;;;;;3.24;100.00;97487.69;10603418;28;20201;-64
2021/12/14 08:40:19;;;;;;;5.23;4.10;;;;;;;3.32;100.00;97491.50;10604509;28;20428;-64
2021/12/14 08:45:25;;;;;;;8.13;4.73;;;;;;;3.21;100.00;97507.66;10606644;28;20530;-67
2021/12/14 08:50:26;;;;;;;7.93;5.20;;;;;;;3.42;100.00;97515.06;10606730;28;20173;-64
2021/12/14 08:55:32;;;;;;;7.13;4.30;;;;;;;3.63;100.00;97512.09;10594685;28;20246;-65
2021/12/14 09:00:39;;;;;;;7.63;6.73;;;;;;;3.57;100.00;97534.88;10607022;28;20178;-64
2021/12/14 09:05:45;;;;;;;10.97;8.90;;;;;;;3.70;100.00;97528.94;10606336;28;20181;-64
2021/12/14 09:10:48;;;;;;;11.80;8.80;;;;;;;3.88;100.00;97514.84;10591595;28;20194;-64
2021/12/14 09:15:54;;;;;;;10.07;7.70;;;;;;;3.94;100.00;97511.06;10585358;28;20232;-64
2021/12/14 09:21:16;;;;;;;10.80;8.23;;;;;;;3.96;100.00;97516.16;10577754;28;20186;-64
2021/12/14 09:26:20;;;;;;;11.67;8.37;;;;;;;3.87;100.00;97518.38;10571381;28;20174;-65
2021/12/14 09:31:26;;;;;;;12.40;9.17;;;;;;;4.07;100.00;97514.56;10568207;28;20227;-65
2021/12/14 09:36:29;;;;;;;10.93;8.97;;;;;;;4.03;100.00;97512.25;10590489;28;20219;-66
2021/12/14 09:41:33;;;;;;;13.60;9.80;;;;;;;3.95;100.00;97515.31;10567495;28;20171;-65
2021/12/14 09:46:33;;;;;;;10.97;8.90;;;;;;;3.84;100.00;97515.16;10572702;28;20205;-65
2021/12/14 09:51:36;;;;;;;11.70;9.50;;;;;;;3.85;100.00;97514.22;10572817;28;20190;-65
2021/12/14 09:56:40;;;;;;;13.37;10.57;;;;;;;3.81;100.00;97513.56;10572117;28;20170;-65
2021/12/14 10:01:46;;;;;;;15.73;11.77;;;;;;;4.00;100.00;97513.28;10571625;28;20296;-65
2021/12/14 10:06:49;;;;;;;13.57;10.37;;;;;;;3.96;100.00;97508.38;10585088;28;20351;-65
2021/12/14 10:16:58;;;;;;;13.97;9.73;;;;;;;3.96;100.00;97508.38;10571503;28;20464;-65
2021/12/14 10:22:06;;;;;;;14.50;11.03;;;;;;;4.11;100.00;97499.63;10571382;28;20174;-65
2021/12/14 10:27:16;;;;;;;12.17;9.43;;;;;;;3.98;100.00;97501.31;10568351;28;20252;-65
2021/12/14 10:32:24;;;;;;;11.50;8.83;;;;;;;3.89;100.00;97506.16;10570640;28;20300;-65
2021/12/14 10:37:51;;;;;;;11.63;9.53;;;;;;;3.84;100.00;97497.00;10570367;28;20502;-65
2021/12/14 10:43:12;;;;;;;14.43;11.60;;;;;;;4.00;100.00;97487.34;10568247;28;20285;-65
2021/12/14 10:48:12;;;;;;;16.70;11.50;;;;;;;4.07;100.00;97467.91;10569583;28;20334;-64
2021/12/14 10:53:14;;;;;;;11.57;9.50;;;;;;;3.80;100.00;97462.69;10569488;28;20209;-65
2021/12/14 10:58:18;;;;;;;10.57;8.63;;;;;;;4.03;100.00;97465.59;10569446;28;20170;-65
2021/12/14 11:03:23;;;;;;;9.93;8.90;;;;;;;3.90;100.00;97460.31;10568368;28;20377;-64
2021/12/14 11:08:44;;;;;;;8.33;6.60;;;;;;;4.15;100.00;97471.75;10568909;28;20167;-64
2021/12/14 11:13:50;;;;;;;23.00;18.37;;;;;;;4.22;100.00;97460.88;10568234;28;20288;-65
2021/12/14 11:18:51;;;;;;;7.93;6.80;;;;;;;4.32;100.00;97468.91;10603616;28;20202;-65
2021/12/14 11:23:52;;;;;;;7.07;5.97;;;;;;;4.11;100.00;97458.16;10610047;28;20166;-64
2021/12/14 11:28:56;;;;;;;7.10;5.80;;;;;;;4.21;100.00;97448.00;10610027;28;20439;-65
2021/12/14 11:34:07;;;;;;;6.77;5.57;;;;;;;4.29;100.00;97445.78;10605842;27;20202;-64
2021/12/14 11:39:18;;;;;;;6.33;5.03;;;;;;;3.97;100.00;97437.47;10605144;28;20178;-64
2021/12/14 11:44:24;;;;;;;6.97;5.20;;;;;;;4.21;100.00;97443.69;10603140;28;20162;-63
2021/12/14 11:49:41;;;;;;;6.10;5.40;;;;;;;4.21;100.00;97448.84;10603432;28;20204;-65
2021/12/14 11:54:45;;;;;;;7.13;5.33;;;;;;;4.39;100.00;97433.03;10608266;28;20269;-65
2021/12/14 11:59:46;;;;;;;6.47;5.43;;;;;;;4.45;100.00;97437.81;10608295;28;20182;-65
2021/12/14 12:04:47;;;;;;;6.40;5.40;;;;;;;4.37;100.00;97437.50;10608029;28;20395;-64
2021/12/14 12:09:51;;;;;;;6.33;5.30;;;;;;;4.46;100.00;97439.47;10606615;28;20196;-66
2021/12/14 12:15:15;;;;;;;9.97;6.07;;;;;;;4.57;100.00;97429.22;10601269;28;20217;-64
2021/12/14 12:20:34;;;;;;;6.10;5.23;;;;;;;4.16;100.00;97443.13;10605681;28;20294;-64
2021/12/14 12:25:43;;;;;;;8.23;5.50;;;;;;;4.40;100.00;97432.09;10601737;28;20193;-64
2021/12/14 12:31:12;;;;;;;8.00;6.33;;;;;;;4.27;100.00;97432.91;10605308;28;20178;-61
2021/12/14 12:36:22;;;;;;;7.97;6.73;;;;;;;4.32;100.00;97430.00;10606929;28;20258;-61
2021/12/14 12:41:29;;;;;;;8.93;7.47;;;;;;;4.44;100.00;97433.53;10606587;28;20166;-66
2021/12/14 12:46:32;;;;;;;7.97;6.53;;;;;;;4.26;100.00;97433.81;10607185;28;20208;-62
2021/12/14 12:52:06;;;;;;;13.97;9.93;;;;;;;4.39;100.00;97436.44;10605478;28;20258;-62
2021/12/14 12:57:15;;;;;;;17.97;11.77;;;;;;;4.23;100.00;97447.00;10606599;28;20194;-63
2021/12/14 13:02:21;;;;;;;10.33;7.57;;;;;;;4.11;100.00;97451.19;10605892;28;20166;-64
2021/12/14 13:07:40;;;;;;;10.50;8.13;;;;;;;4.03;100.00;97458.63;10606591;28;20388;-64
2021/12/14 13:12:49;;;;;;;10.30;8.07;;;;;;;4.09;100.00;97458.25;10605597;28;20193;-62
2021/12/14 13:17:50;;;;;;;19.33;10.80;;;;;;;4.17;100.00;97451.75;10614793;28;20213;-65
2021/12/14 13:22:50;;;;;;;14.20;9.60;;;;;;;4.17;100.00;97446.56;10613896;28;20340;-64
2021/12/14 13:27:51;;;;;;;10.00;8.27;;;;;;;4.07;100.00;97441.97;10614704;28;20268;-61
2021/12/14 13:32:51;;;;;;;13.77;9.57;;;;;;;4.09;100.00;97449.66;10614591;28;20436;-62
2021/12/14 13:37:59;;;;;;;15.03;10.10;;;;;;;4.10;100.00;97449.53;10614275;28;20188;-64
2021/12/14 13:43:03;;;;;;;13.13;10.63;;;;;;;4.24;100.00;97448.66;10613842;28;20165;-63
2021/12/14 13:48:06;;;;;;;14.37;9.47;;;;;;;4.14;100.00;97455.34;10596710;28;20170;-63
2021/12/14 13:53:08;;;;;;;14.67;9.97;;;;;;;4.31;100.00;97463.81;10613359;28;20413;-63
2021/12/14 13:58:16;;;;;;;14.13;10.37;;;;;;;4.21;100.00;97468.75;10612917;28;20339;-63
2021/12/14 14:03:16;;;;;;;18.90;10.90;;;;;;;4.04;100.00;97480.19;10613548;28;20161;-66
2021/12/14 14:08:24;;;;;;;14.03;10.80;;;;;;;4.08;100.00;97473.91;10612595;28;20170;-64
2021/12/14 14:13:33;;;;;;;15.37;11.13;;;;;;;3.98;100.00;97472.81;10612471;28;20198;-64
2021/12/14 14:18:40;;;;;;;17.47;12.40;;;;;;;3.94;100.00;97464.41;10570061;28;20229;-62
2021/12/14 14:23:46;;;;;;;17.87;12.50;;;;;;;4.13;100.00;97482.22;10570084;28;20220;-64
2021/12/14 14:28:53;;;;;;;16.93;11.77;;;;;;;4.04;100.00;97488.81;10588851;28;20513;-64
2021/12/14 14:33:53;;;;;;;14.77;11.57;;;;;;;4.19;100.00;97492.19;10611904;28;20225;-61
2021/12/14 14:39:11;;;;;;;17.07;12.13;;;;;;;4.01;100.00;97498.53;10610375;28;20377;-65
2021/12/14 14:44:14;;;;;;;19.60;12.10;;;;;;;4.04;100.00;97506.13;10609301;28;20165;-64
2021/12/14 14:49:22;;;;;;;17.17;11.73;;;;;;;4.09;100.00;97504.91;10610363;28;20222;-64
2021/12/14 14:54:34;;;;;;;17.83;11.70;;;;;;;4.08;100.00;97520.56;10610109;27;20209;-64
2021/12/14 14:59:40;;;;;;;17.73;12.50;;;;;;;4.05;100.00;97525.94;10609944;28;20208;-64
2021/12/14 15:05:05;;;;;;;16.83;11.53;;;;;;;4.22;100.00;97520.53;10611090;28;20166;-64
2021/12/14 15:10:09;;;;;;;20.47;13.40;;;;;;;4.15;100.00;97502.84;10610684;28;20170;-64
2021/12/14 15:15:17;;;;;;;20.60;13.97;;;;;;;3.90;100.00;97505.22;10610207;28;20481;-66
2021/12/14 15:20:28;;;;;;;18.57;12.50;;;;;;;3.92;100.00;97499.94;10609942;28;20168;-65
2021/12/14 15:25:31;;;;;;;24.60;15.27;;;;;;;3.68;100.00;97508.31;10608192;28;20173;-64
2021/12/14 15:30:53;;;;;;;25.73;15.30;;;;;;;3.92;100.00;97513.75;10609682;28;20238;-65
2021/12/14 15:36:02;;;;;;;22.43;14.43;;;;;;;4.02;100.00;97519.19;10600031;28;20233;-64
2021/12/14 15:41:08;;;;;;;24.37;15.77;;;;;;;3.84;100.00;97517.72;10608951;28;20177;-65
2021/12/14 15:46:21;;;;;;;23.77;15.30;;;;;;;3.82;100.00;97511.81;10609796;28;20176;-65
2021/12/14 15:51:39;;;;;;;23.57;16.20;;;;;;;3.84;100.00;97504.78;10607998;28;20194;-64
2021/12/14 15:56:52;;;;;;;21.47;14.90;;;;;;;3.85;100.00;97504.69;10608603;28;20227;-61
2021/12/14 16:01:55;;;;;;;23.93;15.37;;;;;;;3.90;100.00;97489.66;10608055;28;20162;-64
2021/12/14 16:06:57;;;;;;;27.43;15.80;;;;;;;3.79;100.00;97505.06;10607355;28;20184;-61
2021/12/14 16:17:26;;;;;;;28.33;17.43;;;;;;;3.61;100.00;97517.38;10608016;28;20221;-62
2021/12/14 16:22:32;;;;;;;24.90;16.77;;;;;;;3.71;100.00;97512.47;10607375;28;20181;-63
2021/12/14 16:27:33;;;;;;;21.27;15.13;;;;;;;3.84;100.00;97508.19;10608150;28;20182;-62
2021/12/14 16:32:34;;;;;;;30.73;18.67;;;;;;;3.85;100.00;97519.41;10606172;28;20434;-65
2021/12/14 16:37:35;;;;;;;25.43;16.83;;;;;;;3.81;100.00;97521.34;10605449;28;20185;-62
2021/12/14 16:42:36;;;;;;;26.13;17.03;;;;;;;3.88;100.00;97534.78;10604096;28;20174;-62
2021/12/14 16:47:43;;;;;;;25.57;15.37;;;;;;;3.96;100.00;97531.72;10603028;28;20162;-63
2021/12/14 16:52:45;;;;;;;26.47;17.87;;;;;;;3.97;100.00;97549.75;10604634;28;20306;-61
2021/12/14 16:57:45;;;;;;;28.37;17.30;;;;;;;3.86;100.00;97567.72;10604184;28;20162;-63
2021/12/14 17:02:46;;;;;;;27.70;17.67;;;;;;;3.88;100.00;97577.06;10603481;28;20162;-62
2021/12/14 17:07:47;;;;;;;27.03;18.30;;;;;;;3.88;100.00;97564.09;10602197;28;20170;-59
2021/12/14 17:12:56;;;;;;;35.07;19.57;;;;;;;3.67;100.00;97570.59;10604783;28;20255;-62
2021/12/14 17:17:58;;;;;;;32.57;20.70;;;;;;;3.72;100.00;97569.41;10608238;28;20244;-63
2021/12/14 17:22:59;;;;;;;30.40;18.63;;;;;;;3.67;100.00;97565.41;10591335;28;20163;-63
2021/12/14 17:27:59;;;;;;;26.13;16.97;;;;;;;3.76;100.00;97567.44;10608618;28;20165;-62
2021/12/14 17:33:00;;;;;;;31.10;19.07;;;;;;;3.65;100.00;97572.44;10606224;28;20205;-60
2021/12/14 17:38:04;;;;;;;29.33;18.43;;;;;;;3.74;100.00;97574.50;10607706;28;20174;-63
2021/12/14 17:43:07;;;;;;;34.20;19.97;;;;;;;3.70;100.00;97581.59;10607699;28;20175;-62
2021/12/14 17:48:09;;;;;;;31.13;18.07;;;;;;;3.77;100.00;97595.03;10608306;28;20170;-62
2021/12/14 17:53:13;;;;;;;31.33;18.23;;;;;;;3.82;100.00;97586.97;10607712;28;20202;-63
2021/12/14 17:58:24;;;;;;;32.00;19.57;;;;;;;3.73;100.00;97588.38;10607194;28;20170;-64
2021/12/14 18:03:28;;;;;;;29.80;18.60;;;;;;;3.72;100.00;97597.06;10613776;28;20177;-63
2021/12/14 18:08:31;;;;;;;31.73;19.13;;;;;;;3.83;100.00;97583.44;10615287;28;20185;-64
2021/12/14 18:13:37;;;;;;;33.77;19.47;;;;;;;3.71;100.00;97596.22;10614183;28;20198;-64
2021/12/14 18:19:04;;;;;;;32.60;19.27;;;;;;;3.64;100.00;97594.91;10615034;28;20218;-62
2021/12/14 18:24:08;;;;;;;32.47;19.27;;;;;;;3.53;100.00;97594.72;10614752;28;20162;-63
2021/12/14 18:29:16;;;;;;;32.20;19.03;;;;;;;3.60;100.00;97593.44;10614495;28;20173;-64
2021/12/14 18:34:18;;;;;;;35.37;20.93;;;;;;;3.56;100.00;97599.72;10614384;28;20204;-64
2021/12/14 18:39:27;;;;;;;36.70;20.40;;;;;;;3.59;100.00;97590.94;10613815;28;20178;-62
2021/12/14 18:44:27;;;;;;;34.47;20.60;;;;;;;3.55;100.00;97598.06;10614157;28;20239;-64
2021/12/14 18:49:39;;;;;;;33.90;19.50;;;;;;;3.72;100.00;97591.88;10613678;28;20231;-67
2021/12/14 18:54:40;;;;;;;40.00;20.47;;;;;;;3.68;100.00;97603.38;10614016;28;20189;-62
2021/12/14 18:59:47;;;;;;;36.20;20.17;;;;;;;3.74;100.00;97608.19;10612866;28;20407;-62
2021/12/14 19:04:51;;;;;;;39.37;21.20;;;;;;;3.77;100.00;97610.59;10613883;28;20169;-62
2021/12/14 19:09:51;;;;;;;37.80;19.70;;;;;;;3.86;100.00;97612.63;10612375;28;20170;-63
2021/12/14 19:15:13;;;;;;;36.93;20.77;;;;;;;3.83;100.00;97614.53;10612575;28;20225;-62
2021/12/14 19:20:18;;;;;;;35.37;20.90;;;;;;;3.82;100.00;97611.13;10612681;28;20241;-63
2021/12/14 19:25:23;;;;;;;36.93;19.90;;;;;;;3.87;100.00;97608.25;10612305;28;20174;-62
2021/12/14 19:30:25;;;;;;;40.30;18.90;;;;;;;3.95;100.00;97616.44;10612551;28;20218;-62
2021/12/14 19:35:31;;;;;;;36.83;20.93;;;;;;;3.89;100.00;97628.00;10611666;28;20198;-63
2021/12/14 19:40:39;;;;;;;36.20;21.83;;;;;;;3.83;100.00;97630.94;10611369;28;20289;-62
2021/12/14 19:45:43;;;;;;;40.50;22.70;;;;;;;3.74;100.00;97631.50;10611664;28;20162;-62
2021/12/14 19:50:48;;;;;;;37.40;20.60;;;;;;;3.92;100.00;97633.00;10611722;28;20190;-64
2021/12/14 19:55:49;;;;;;;36.50;20.80;;;;;;;3.91;100.00;97641.69;10610574;28;20194;-63
2021/12/14 20:00:51;;;;;;;40.77;22.87;;;;;;;3.79;100.00;97647.59;10611204;28;20182;-64
2021/12/14 20:06:07;;;;;;;41.90;22.40;;;;;;;3.99;100.00;97643.00;10610711;28;20208;-63
2021/12/14 20:11:10;;;;;;;38.60;19.93;;;;;;;3.89;100.00;97645.28;10609733;28;20185;-64
2021/12/14 20:16:13;;;;;;;51.10;25.47;;;;;;;3.84;100.00;97650.75;10610576;28;20222;-65
2021/12/14 20:21:23;;;;;;;42.20;20.80;;;;;;;3.88;100.00;97646.22;10610236;28;20399;-62
2021/12/14 20:26:28;;;;;;;38.97;20.77;;;;;;;3.81;100.00;97647.50;10609421;28;20177;-64
2021/12/14 20:31:34;;;;;;;43.30;22.03;;;;;;;4.00;100.00;97649.84;10609678;28;20214;-65
2021/12/14 20:36:37;;;;;;;34.40;19.20;;;;;;;3.97;100.00;97642.25;10609589;28;20219;-64
2021/12/14 20:41:45;;;;;;;33.47;18.43;;;;;;;4.01;100.00;97638.53;10608568;28;20174;-65
2021/12/14 20:46:49;;;;;;;34.67;18.07;;;;;;;3.95;100.00;97646.69;10609698;28;20426;-64
2021/12/14 20:51:53;;;;;;;32.87;19.10;;;;;;;3.93;100.00;97651.97;10608658;28;20197;-64
2021/12/14 20:56:56;;;;;;;34.83;18.50;;;;;;;3.96;100.00;97650.94;10609468;28;20165;-64
2021/12/14 21:02:01;;;;;;;30.33;14.63;;;;;;;4.02;100.00;97651.41;10608771;28;20177;-64
2021/12/14 21:07:08;;;;;;;29.07;16.83;;;;;;;4.02;100.00;97655.78;10608697;28;20193;-66
2021/12/14 21:12:11;;;;;;;38.30;18.17;;;;;;;3.88;100.00;97664.38;10608583;28;20201;-64
2021/12/14 21:17:15;;;;;;;33.37;17.13;;;;;;;4.01;100.00;97665.31;10608454;28;20451;-64
2021/12/14 21:22:26;;;;;;;26.90;15.70;;;;;;;3.99;100.00;97666.31;10606979;28;20368;-65
2021/12/14 21:27:30;;;;;;;31.90;16.53;;;;;;;3.88;100.00;97670.38;10608059;28;20176;-65
2021/12/14 21:32:34;;;;;;;34.23;16.97;;;;;;;3.96;100.00;97664.75;10606714;28;20194;-64
2021/12/14 21:37:35;;;;;;;32.63;15.80;;;;;;;4.05;100.00;97668.53;10607577;28;20182;-65
2021/12/14 21:42:42;;;;;;;30.70;16.63;;;;;;;3.87;100.00;97678.25;10616239;28;20207;-64
2021/12/14 21:47:43;;;;;;;30.80;16.53;;;;;;;3.89;100.00;97679.84;10615738;28;20380;-66
2021/12/14 21:52:45;;;;;;;32.73;16.57;;;;;;;4.02;100.00;97676.50;10615910;28;20190;-65
2021/12/14 21:57:49;;;;;;;37.40;18.23;;;;;;;3.91;100.00;97671.97;10615851;28;20166;-65
2021/12/14 22:02:51;;;;;;;43.47;18.87;;;;;;;3.90;100.00;97678.06;10616004;28;20225;-65
2021/12/14 22:07:51;;;;;;;39.63;19.40;;;;;;;4.03;100.00;97680.78;10615080;28;20219;-64
2021/12/14 22:12:52;;;;;;;34.83;18.13;;;;;;;3.97;100.00;97676.78;10615120;28;20269;-64
2021/12/14 22:17:53;;;;;;;35.40;17.53;;;;;;;3.97;100.00;97679.38;10614940;28;20263;-64
2021/12/14 22:22:54;;;;;;;39.10;19.03;;;;;;;3.81;100.00;97682.03;10614799;28;20166;-65
2021/12/14 22:27:55;;;;;;;34.53;16.67;;;;;;;3.90;100.00;97681.47;10614936;28;20170;-63
2021/12/14 22:32:56;;;;;;;32.93;16.90;;;;;;;3.96;100.00;97682.06;10614524;28;20201;-68
2021/12/14 22:37:57;;;;;;;38.87;18.90;;;;;;;3.87;100.00;97689.44;10614335;28;20182;-66
2021/12/14 22:48:17;;;;;;;45.13;21.80;;;;;;;3.90;100.00;97688.44;10613602;28;20177;-63
2021/12/14 22:53:18;;;;;;;45.13;20.00;;;;;;;3.91;100.00;97685.75;10613896;28;20209;-63
2021/12/14 22:58:18;;;;;;;42.50;21.43;;;;;;;3.86;100.00;97673.97;10613847;28;20197;-65
2021/12/14 23:03:19;;;;;;;34.37;18.30;;;;;;;3.92;100.00;97671.88;10613308;28;20170;-67
2021/12/14 23:08:19;;;;;;;38.20;19.47;;;;;;;3.96;100.00;97676.88;10613448;28;20170;-64
2021/12/14 23:13:24;;;;;;;41.57;19.93;;;;;;;3.92;100.00;97669.28;10612834;28;20443;-65
2021/12/14 23:23:28;;;;;;;35.33;18.33;;;;;;;3.97;100.00;97678.56;10612778;28;20174;-65
2021/12/14 23:28:28;;;;;;;32.87;18.20;;;;;;;3.98;100.00;97691.44;10612722;28;20291;-65
2021/12/14 23:33:30;;;;;;;41.83;19.87;;;;;;;4.00;100.00;97683.56;10611640;28;20202;-65
2021/12/14 23:38:35;;;;;;;32.43;16.73;;;;;;;4.04;100.00;97685.03;10611787;28;20166;-65
2021/12/14 23:43:37;;;;;;;32.63;17.57;;;;;;;4.04;100.00;97693.66;10611948;28;20249;-65
2021/12/14 23:48:38;;;;;;;34.57;18.83;;;;;;;4.00;100.00;97688.75;10611488;28;20189;-65
2021/12/14 23:53:39;;;;;;;32.13;17.93;;;;;;;4.03;100.00;97683.38;10611099;28;20201;-64
2021/12/14 23:58:41;;;;;;;38.10;19.57;;;;;;;3.97;100.00;97681.97;10610837;28;20170;-64
